Time;durP1;ratioP1;P1;durP2;ratioP2;P2;SDS_P1;SDS_P2;PMS_P1;PMS_P2;Temp;Humidity;BMP_temperature;BMP_pressure;BME280_temperature;BME280_humidity;BME280_pressure;Samples;Min_cycle;Max_cycle;Signal;HPM_P1;HPM_P2
2022/01/28 00:02:58;;;;;;;30.27;3.50;;;4.60;99.90;;;;;;5052048;28;20376;-75
2022/01/28 00:05:20;;;;;;;28.00;4.00;;;4.60;99.90;;;;;;5052164;28;20053;-75
2022/01/28 00:07:47;;;;;;;24.33;3.57;;;4.60;99.90;;;;;;5035574;28;20036;-74
2022/01/28 00:10:13;;;;;;;20.98;3.35;;;4.70;99.90;;;;;;5051981;28;20394;-73
2022/01/28 00:15:37;;;;;;;15.98;2.60;;;4.70;99.90;;;;;;5052622;28;20053;-73
2022/01/28 00:39:25;;;;;;;14.27;2.60;;;4.80;99.90;;;;;;5053179;28;20079;-74
2022/01/28 00:41:52;;;;;;;13.60;2.85;;;4.80;99.90;;;;;;5055916;28;20045;-73
2022/01/28 00:44:18;;;;;;;15.95;2.72;;;4.80;99.90;;;;;;5055803;28;20108;-73
2022/01/28 00:46:43;;;;;;;17.13;2.60;;;4.70;99.90;;;;;;5055522;28;20073;-76
2022/01/28 00:49:09;;;;;;;19.23;2.78;;;4.70;99.90;;;;;;5055679;28;20532;-73
2022/01/28 00:51:35;;;;;;;14.68;2.90;;;4.70;99.90;;;;;;5055522;28;20052;-72
2022/01/28 00:54:00;;;;;;;13.48;2.20;;;4.70;99.90;;;;;;5074446;28;20036;-73
2022/01/28 00:56:26;;;;;;;16.05;2.28;;;4.70;99.90;;;;;;5058159;28;20033;-73
2022/01/28 00:58:52;;;;;;;17.33;2.47;;;4.70;99.90;;;;;;5075422;28;20044;-73
2022/01/28 01:01:17;;;;;;;21.33;3.40;;;4.70;99.90;;;;;;5075575;28;20494;-73
2022/01/28 01:03:43;;;;;;;13.68;2.50;;;4.70;99.90;;;;;;5058409;28;20089;-74
2022/01/28 01:06:09;;;;;;;17.73;3.78;;;4.80;99.90;;;;;;5075240;28;20123;-74
2022/01/28 01:08:34;;;;;;;13.27;2.20;;;4.80;99.90;;;;;;5075038;28;20040;-73
2022/01/28 01:11:00;;;;;;;20.67;2.60;;;4.80;99.90;;;;;;5075597;28;20044;-73
2022/01/28 01:13:27;;;;;;;14.98;2.75;;;4.70;99.90;;;;;;5075142;28;20040;-74
2022/01/28 01:15:57;;;;;;;13.60;2.30;;;4.80;99.90;;;;;;5074998;28;20051;-74
2022/01/28 01:18:29;;;;;;;14.43;2.53;;;4.70;99.90;;;;;;5058463;28;20044;-72
2022/01/28 01:21:22;;;;;;;18.20;2.88;;;4.70;99.90;;;;;;5074947;28;20055;-73
2022/01/28 01:23:50;;;;;;;21.98;3.03;;;4.70;99.90;;;;;;5056738;28;20052;-72
2022/01/28 01:26:15;;;;;;;15.93;2.78;;;4.70;99.90;;;;;;5054785;28;20427;-73
2022/01/28 01:28:42;;;;;;;22.60;2.92;;;4.70;99.90;;;;;;5055048;28;20471;-72
2022/01/28 01:31:16;;;;;;;16.52;2.67;;;4.60;99.90;;;;;;5054740;28;20037;-72
2022/01/28 01:33:56;;;;;;;23.70;3.15;;;4.60;99.90;;;;;;5054648;28;20126;-72
2022/01/28 01:36:23;;;;;;;24.63;2.80;;;4.60;99.90;;;;;;5038487;28;20044;-72
2022/01/28 01:38:49;;;;;;;18.48;2.75;;;4.50;99.90;;;;;;5054754;28;20040;-72
2022/01/28 01:41:31;;;;;;;21.98;3.40;;;4.50;99.90;;;;;;5054811;28;20040;-72
2022/01/28 01:44:05;;;;;;;25.85;3.03;;;4.50;99.90;;;;;;5054624;28;20045;-72
2022/01/28 01:54:25;;;;;;;23.50;3.55;;;4.60;99.90;;;;;;5074714;28;20048;-73
2022/01/28 01:56:53;;;;;;;22.48;3.08;;;4.70;99.90;;;;;;5074047;28;20066;-73
2022/01/28 01:59:18;;;;;;;18.77;3.08;;;4.70;99.90;;;;;;5074264;28;20511;-73
2022/01/28 02:01:44;;;;;;;19.20;2.38;;;4.70;99.90;;;;;;5074420;28;20040;-73
2022/01/28 02:04:09;;;;;;;20.27;2.90;;;4.70;99.90;;;;;;5073914;28;20052;-73
2022/01/28 02:06:37;;;;;;;22.08;2.80;;;4.70;99.90;;;;;;5074029;28;20040;-72
2022/01/28 02:09:04;;;;;;;20.55;3.65;;;4.70;99.90;;;;;;5074095;28;20048;-73
2022/01/28 02:11:30;;;;;;;23.98;2.85;;;4.80;99.90;;;;;;5073904;28;20052;-73
2022/01/28 02:13:56;;;;;;;14.30;2.35;;;4.80;99.90;;;;;;5074204;28;20041;-73
2022/01/28 02:16:22;;;;;;;22.83;2.80;;;4.80;99.90;;;;;;5074051;28;20044;-73
2022/01/28 02:18:47;;;;;;;13.75;2.65;;;4.80;99.90;;;;;;5074393;28;20098;-73
2022/01/28 02:21:15;;;;;;;19.05;2.60;;;4.80;99.90;;;;;;5072387;28;20378;-73
2022/01/28 02:23:44;;;;;;;14.00;2.75;;;4.80;99.90;;;;;;5074202;28;20044;-73
2022/01/28 02:26:15;;;;;;;18.27;3.30;;;4.80;99.90;;;;;;5074059;28;20045;-73
2022/01/28 02:28:44;;;;;;;27.05;3.50;;;4.90;99.90;;;;;;5057683;28;20286;-73
2022/01/28 02:31:10;;;;;;;16.53;2.63;;;4.90;99.90;;;;;;5073799;28;20363;-73
2022/01/28 02:33:36;;;;;;;29.55;3.05;;;4.80;99.90;;;;;;5056793;28;20483;-73
2022/01/28 02:36:05;;;;;;;22.52;2.67;;;4.80;99.90;;;;;;5057041;28;20558;-74
2022/01/28 02:38:31;;;;;;;22.60;3.50;;;4.90;99.90;;;;;;5073198;28;20040;-73
2022/01/28 02:40:59;;;;;;;19.92;2.78;;;4.90;99.90;;;;;;5074256;28;20047;-73
2022/01/28 02:43:33;;;;;;;19.20;2.67;;;4.90;99.90;;;;;;5056061;28;20181;-73
2022/01/28 02:46:07;;;;;;;16.58;2.75;;;4.90;99.90;;;;;;5070312;28;20072;-73
2022/01/28 02:48:34;;;;;;;18.48;3.22;;;4.90;99.90;;;;;;5053264;28;20078;-75
2022/01/28 02:51:15;;;;;;;18.65;2.53;;;4.90;99.90;;;;;;5052916;28;20072;-73
2022/01/28 02:56:59;;;;;;;22.77;3.10;;;5.00;99.90;;;;;;5055058;28;20068;-73
2022/01/28 02:59:01;;;;;;;16.30;3.15;;;5.00;99.90;;;;;;5050114;28;20053;-76
2022/01/28 03:01:27;;;;;;;21.13;3.03;;;5.00;99.90;;;;;;5035802;28;20041;-75
2022/01/28 03:03:55;;;;;;;22.63;3.63;;;5.00;99.90;;;;;;5052955;28;20059;-73
2022/01/28 03:06:21;;;;;;;19.30;3.33;;;5.10;99.90;;;;;;5053215;28;20049;-74
2022/01/28 03:08:55;;;;;;;21.02;3.35;;;5.00;99.90;;;;;;5052956;28;20040;-75
2022/01/28 03:16:30;;;;;;;24.10;3.15;;;4.90;99.90;;;;;;5072365;28;20045;-73
2022/01/28 03:19:01;;;;;;;21.75;2.90;;;4.90;99.90;;;;;;5073045;28;20102;-73
2022/01/28 03:23:57;;;;;;;;;;;4.80;99.90;;;;;;5073090;28;20059;-73
2022/01/28 03:26:25;;;;;;;27.95;3.25;;;4.80;99.90;;;;;;5072325;28;19986;-73
2022/01/28 03:28:51;;;;;;;21.83;3.08;;;4.70;99.90;;;;;;5072888;28;20080;-73
2022/01/28 03:31:17;;;;;;;29.08;2.92;;;4.70;99.90;;;;;;5072276;28;20082;-73
2022/01/28 03:33:43;;;;;;;21.77;3.10;;;4.70;99.90;;;;;;5052792;28;20049;-73
2022/01/28 03:36:10;;;;;;;15.32;3.78;;;4.70;99.90;;;;;;5036129;28;20055;-74
2022/01/28 03:38:37;;;;;;;22.90;3.10;;;4.70;99.90;;;;;;5052612;28;20052;-73
2022/01/28 03:41:03;;;;;;;21.95;3.03;;;4.70;99.90;;;;;;5052062;28;20052;-75
2022/01/28 03:43:29;;;;;;;24.02;2.75;;;4.70;99.90;;;;;;5052482;28;20037;-73
2022/01/28 03:45:55;;;;;;;26.05;3.40;;;4.70;99.90;;;;;;5052480;28;20055;-73
2022/01/28 03:48:20;;;;;;;21.90;2.72;;;4.70;99.90;;;;;;5086198;28;20166;-73
2022/01/28 03:50:46;;;;;;;18.92;2.70;;;4.70;99.90;;;;;;5035959;28;20132;-74
2022/01/28 03:53:11;;;;;;;19.80;2.75;;;4.70;99.90;;;;;;5052262;28;20047;-76
2022/01/28 03:55:37;;;;;;;31.85;3.92;;;4.70;99.90;;;;;;5051731;28;20475;-76
2022/01/28 03:58:03;;;;;;;18.08;2.80;;;4.60;99.90;;;;;;5053111;28;20494;-76
2022/01/28 04:00:31;;;;;;;18.40;2.85;;;4.60;99.90;;;;;;5052566;28;20044;-73
2022/01/28 04:03:12;;;;;;;24.38;3.00;;;4.60;99.90;;;;;;5048281;28;20098;-73
2022/01/28 04:13:51;;;;;;;31.10;4.00;;;4.50;99.90;;;;;;5072896;28;20139;-73
2022/01/28 04:18:45;;;;;;;30.25;3.65;;;4.50;99.90;;;;;;5076027;28;20067;-73
2022/01/28 04:21:11;;;;;;;22.60;3.70;;;4.40;99.90;;;;;;5059966;28;20371;-73
2022/01/28 04:23:37;;;;;;;28.38;4.07;;;4.50;99.90;;;;;;5076696;28;20497;-72
2022/01/28 04:26:03;;;;;;;20.85;3.22;;;4.50;99.90;;;;;;5076230;28;20059;-73
2022/01/28 04:28:29;;;;;;;23.60;3.28;;;4.50;99.90;;;;;;5075677;28;20123;-73
2022/01/28 04:30:55;;;;;;;24.52;3.22;;;4.50;99.90;;;;;;5075894;28;20540;-75
2022/01/28 04:33:20;;;;;;;20.27;3.15;;;4.50;99.90;;;;;;5042197;28;20102;-76
2022/01/28 04:35:49;;;;;;;26.80;3.15;;;4.50;99.90;;;;;;5058019;28;20450;-73
2022/01/28 04:38:29;;;;;;;30.67;3.83;;;4.50;99.90;;;;;;5076400;28;20041;-73
2022/01/28 04:43:27;;;;;;;22.92;3.45;;;4.50;99.90;;;;;;5075612;28;20101;-76
2022/01/28 04:46:10;;;;;;;26.83;3.88;;;4.50;99.90;;;;;;5075490;28;20052;-73
2022/01/28 04:49:29;;;;;;;24.45;3.30;;;4.60;99.90;;;;;;5076226;28;20094;-73
2022/01/28 04:51:46;;;;;;;27.17;4.53;;;4.60;99.90;;;;;;5071128;28;20111;-73
2022/01/28 04:56:48;;;;;;;25.35;3.47;;;4.60;99.90;;;;;;5065076;28;20551;-74
2022/01/28 05:00:22;;;;;;;26.48;3.60;;;4.60;99.90;;;;;;5038851;28;20045;-74
2022/01/28 05:02:25;;;;;;;25.27;3.67;;;4.60;99.90;;;;;;5050819;28;20052;-73
2022/01/28 05:07:33;;;;;;;30.17;3.67;;;4.70;99.90;;;;;;5055328;28;20047;-75
2022/01/28 05:13:13;;;;;;;28.30;3.50;;;4.70;99.90;;;;;;5055231;28;19917;-74
2022/01/28 05:24:08;;;;;;;25.00;3.60;;;4.70;99.90;;;;;;5055798;28;20052;-73
2022/01/28 05:26:34;;;;;;;24.50;4.43;;;4.70;99.90;;;;;;5062548;28;20044;-73
2022/01/28 05:29:00;;;;;;;26.45;3.50;;;4.70;99.90;;;;;;5075059;28;20115;-73
2022/01/28 05:31:26;;;;;;;29.40;3.92;;;4.60;99.90;;;;;;5074827;28;20497;-72
2022/01/28 05:33:52;;;;;;;33.78;4.63;;;4.60;99.90;;;;;;5074559;28;20040;-75
2022/01/28 05:36:17;;;;;;;27.35;3.67;;;4.60;99.90;;;;;;5075089;28;20032;-74
2022/01/28 05:38:44;;;;;;;32.88;4.63;;;4.50;99.90;;;;;;5058273;28;20047;-73
2022/01/28 05:41:10;;;;;;;33.10;3.80;;;4.50;99.90;;;;;;5074784;28;20033;-73
2022/01/28 05:43:35;;;;;;;24.23;3.95;;;4.50;99.90;;;;;;5074488;28;20036;-75
2022/01/28 05:46:01;;;;;;;26.48;4.03;;;4.50;99.90;;;;;;5074468;28;20049;-75
2022/01/28 05:48:27;;;;;;;31.15;4.30;;;4.50;99.90;;;;;;5074022;28;20032;-74
2022/01/28 05:50:52;;;;;;;27.60;4.18;;;4.50;99.90;;;;;;5063464;28;20072;-74
2022/01/28 05:53:18;;;;;;;29.08;4.50;;;4.50;99.90;;;;;;5037873;28;20095;-76
2022/01/28 05:55:44;;;;;;;26.50;3.70;;;4.50;99.90;;;;;;5054562;28;20044;-74
2022/01/28 05:58:09;;;;;;;22.60;4.00;;;4.50;99.90;;;;;;5054433;28;20037;-74
2022/01/28 06:00:35;;;;;;;30.70;4.22;;;4.50;99.90;;;;;;5037704;28;20048;-75
2022/01/28 06:03:01;;;;;;;35.70;4.60;;;4.50;99.90;;;;;;5037424;28;20049;-76
2022/01/28 06:05:30;;;;;;;31.90;4.82;;;4.50;99.90;;;;;;5037388;28;20048;-75
2022/01/28 06:08:00;;;;;;;26.63;3.60;;;4.50;99.90;;;;;;5054539;28;20041;-74
2022/01/28 06:10:27;;;;;;;20.83;3.55;;;4.50;99.90;;;;;;5054293;28;20036;-73
2022/01/28 06:12:53;;;;;;;23.02;3.42;;;4.40;99.90;;;;;;5037531;28;20043;-73
2022/01/28 06:15:19;;;;;;;23.52;4.60;;;4.40;99.90;;;;;;5053906;28;20029;-73
2022/01/28 06:17:45;;;;;;;26.98;4.72;;;4.40;99.90;;;;;;5037791;28;20049;-74
2022/01/28 06:20:14;;;;;;;21.35;3.50;;;4.40;99.90;;;;;;5058228;28;20032;-75
2022/01/28 06:22:41;;;;;;;29.67;4.03;;;4.30;99.90;;;;;;5057280;28;20090;-73
2022/01/28 06:25:08;;;;;;;31.00;4.28;;;4.30;99.90;;;;;;5073601;28;20106;-75
2022/01/28 06:27:35;;;;;;;24.02;3.80;;;4.30;99.90;;;;;;5056988;28;20070;-74
2022/01/28 06:30:04;;;;;;;28.17;4.40;;;4.30;99.90;;;;;;5073451;28;20044;-74
2022/01/28 06:32:33;;;;;;;29.63;3.88;;;4.30;99.90;;;;;;5074101;28;20044;-73
2022/01/28 06:35:07;;;;;;;28.02;4.32;;;4.40;99.90;;;;;;5073973;28;20386;-75
2022/01/28 06:37:35;;;;;;;30.85;4.00;;;4.40;99.90;;;;;;5072535;28;20048;-74
2022/01/28 06:40:01;;;;;;;26.50;4.20;;;4.40;99.90;;;;;;5073133;28;20046;-75
2022/01/28 06:42:26;;;;;;;29.73;5.32;;;4.40;99.90;;;;;;5073257;28;20044;-73
2022/01/28 06:44:52;;;;;;;34.50;6.43;;;4.40;99.90;;;;;;5056518;28;20437;-75
2022/01/28 06:47:17;;;;;;;29.52;6.78;;;4.50;99.90;;;;;;5073530;28;20475;-75
2022/01/28 06:49:43;;;;;;;26.67;4.25;;;4.50;99.90;;;;;;5072901;28;20041;-73
2022/01/28 06:52:09;;;;;;;29.48;4.25;;;4.50;99.90;;;;;;5053314;28;20045;-76
2022/01/28 06:54:34;;;;;;;32.03;5.28;;;4.50;99.90;;;;;;5053530;28;20039;-75
2022/01/28 06:57:00;;;;;;;28.88;4.22;;;4.50;99.90;;;;;;5036406;28;20360;-74
2022/01/28 06:59:25;;;;;;;24.55;4.68;;;4.50;99.90;;;;;;5052948;28;20052;-74
2022/01/28 07:01:53;;;;;;;29.73;4.10;;;4.50;99.90;;;;;;5053259;28;20443;-74
2022/01/28 07:04:19;;;;;;;32.20;4.82;;;4.50;99.90;;;;;;5052963;28;20064;-73
2022/01/28 07:06:46;;;;;;;26.38;4.43;;;4.50;99.90;;;;;;5036390;28;20037;-76
2022/01/28 07:09:11;;;;;;;25.77;3.88;;;4.50;99.90;;;;;;5053211;28;20056;-74
2022/01/28 07:11:37;;;;;;;25.33;5.28;;;4.50;99.90;;;;;;5052839;28;20041;-74
2022/01/28 07:14:03;;;;;;;26.23;4.32;;;4.50;99.90;;;;;;5053811;28;20063;-73
2022/01/28 07:16:30;;;;;;;24.80;4.63;;;4.50;99.90;;;;;;5053184;28;20041;-75
2022/01/28 07:18:56;;;;;;;38.33;8.25;;;4.40;99.90;;;;;;5065363;28;20044;-74
2022/01/28 07:21:21;;;;;;;30.60;9.75;;;4.40;99.90;;;;;;5066351;28;20438;-73
2022/01/28 07:23:47;;;;;;;30.80;9.95;;;4.40;99.90;;;;;;5071722;28;20525;-73
2022/01/28 07:26:13;;;;;;;27.52;4.93;;;4.40;99.90;;;;;;5071855;28;20106;-76
2022/01/28 07:28:40;;;;;;;31.15;4.75;;;4.30;99.90;;;;;;5054591;28;20040;-75
2022/01/28 07:31:08;;;;;;;18.83;3.47;;;4.30;99.90;;;;;;5071659;28;20048;-73
2022/01/28 07:33:34;;;;;;;28.75;4.18;;;4.30;99.90;;;;;;5055078;28;20141;-75
2022/01/28 07:36:00;;;;;;;23.40;4.82;;;4.30;99.90;;;;;;5055331;28;20102;-75
2022/01/28 07:38:26;;;;;;;30.17;3.75;;;4.30;99.90;;;;;;5071601;28;20055;-75
2022/01/28 07:40:51;;;;;;;28.45;4.30;;;4.20;99.90;;;;;;5054713;28;20048;-75
2022/01/28 07:43:17;;;;;;;30.80;3.85;;;4.20;99.90;;;;;;5054545;28;20081;-74
2022/01/28 07:45:43;;;;;;;25.65;4.13;;;4.20;99.90;;;;;;5071680;28;20139;-74
2022/01/28 07:48:09;;;;;;;26.98;4.15;;;4.20;99.90;;;;;;5073921;28;20059;-73
2022/01/28 07:50:35;;;;;;;34.00;4.82;;;4.20;99.90;;;;;;5075067;28;20048;-73
2022/01/28 07:53:01;;;;;;;29.50;4.22;;;4.20;99.90;;;;;;5039916;28;20135;-73
2022/01/28 07:55:26;;;;;;;31.83;4.30;;;4.20;99.90;;;;;;5052378;28;20044;-74
2022/01/28 07:57:52;;;;;;;23.15;4.07;;;4.20;99.90;;;;;;5035921;28;20072;-74
2022/01/28 08:00:18;;;;;;;32.53;4.47;;;4.20;99.90;;;;;;5052581;28;20036;-74
2022/01/28 08:02:44;;;;;;;31.27;4.80;;;4.10;99.90;;;;;;5052361;28;20049;-73
2022/01/28 08:05:11;;;;;;;33.30;4.82;;;4.10;99.90;;;;;;5052649;28;20055;-73
2022/01/28 08:07:36;;;;;;;28.85;4.28;;;4.20;99.90;;;;;;5035344;28;20386;-74
2022/01/28 08:10:02;;;;;;;34.03;5.75;;;4.10;99.90;;;;;;5055332;28;20467;-74
2022/01/28 08:12:28;;;;;;;31.30;7.00;;;4.20;99.90;;;;;;5071679;28;20032;-75
2022/01/28 08:14:54;;;;;;;33.38;6.60;;;4.10;99.90;;;;;;5055239;28;20044;-73
2022/01/28 08:17:19;;;;;;;31.73;6.30;;;4.10;99.90;;;;;;5072376;28;20052;-74
2022/01/28 08:19:45;;;;;;;29.95;4.50;;;4.20;99.90;;;;;;5071971;28;20037;-74
2022/01/28 08:22:11;;;;;;;19.67;3.92;;;4.20;99.90;;;;;;5071847;28;20037;-75
2022/01/28 08:24:36;;;;;;;21.77;3.80;;;4.20;99.90;;;;;;5072386;28;20045;-74
2022/01/28 08:27:02;;;;;;;26.45;4.15;;;4.30;99.90;;;;;;5071709;28;20111;-74
2022/01/28 08:29:28;;;;;;;22.63;4.47;;;4.30;99.90;;;;;;5055394;28;20135;-73
2022/01/28 08:31:54;;;;;;;30.40;4.43;;;4.40;99.90;;;;;;5072124;28;20056;-73
2022/01/28 08:34:19;;;;;;;25.35;3.92;;;4.40;99.90;;;;;;5070692;28;20544;-75
2022/01/28 08:36:45;;;;;;;27.65;4.30;;;4.50;99.90;;;;;;5054352;28;20132;-74
2022/01/28 08:39:11;;;;;;;29.42;4.45;;;4.50;99.90;;;;;;5071102;28;20044;-74
2022/01/28 08:41:39;;;;;;;28.20;4.65;;;4.50;99.90;;;;;;5037204;28;20510;-73
2022/01/28 08:44:05;;;;;;;32.63;5.20;;;4.50;99.90;;;;;;5051042;28;20509;-75
2022/01/28 08:46:31;;;;;;;24.65;5.00;;;4.50;99.90;;;;;;5051102;28;20044;-73
2022/01/28 08:48:56;;;;;;;19.05;4.22;;;4.50;99.90;;;;;;5051111;28;20040;-75
2022/01/28 08:51:22;;;;;;;23.92;4.03;;;4.60;99.90;;;;;;5049942;28;20037;-76
2022/01/28 08:53:48;;;;;;;28.40;4.18;;;4.60;99.90;;;;;;5033896;28;20337;-74
2022/01/28 08:56:13;;;;;;;25.15;3.47;;;4.60;99.90;;;;;;5034638;28;20041;-73
2022/01/28 08:58:39;;;;;;;21.13;3.75;;;4.60;99.90;;;;;;5050810;28;20045;-76
2022/01/28 09:01:05;;;;;;;30.83;3.92;;;4.70;99.90;;;;;;5053133;28;20041;-73
2022/01/28 09:03:32;;;;;;;19.92;3.50;;;4.70;99.90;;;;;;5053831;28;20045;-77
2022/01/28 09:05:58;;;;;;;29.55;4.07;;;4.70;99.90;;;;;;5054626;28;20037;-73
2022/01/28 09:08:23;;;;;;;23.65;3.22;;;4.80;99.90;;;;;;5037632;28;20055;-73
2022/01/28 09:10:58;;;;;;;20.90;4.15;;;4.80;99.90;;;;;;5044816;28;20475;-73
2022/01/28 09:13:27;;;;;;;22.88;3.88;;;4.90;99.90;;;;;;5049002;28;20036;-75
2022/01/28 09:15:55;;;;;;;24.80;4.70;;;4.90;99.90;;;;;;5063898;28;20033;-74
2022/01/28 09:18:23;;;;;;;28.02;3.60;;;5.00;99.90;;;;;;5065198;28;20075;-75
2022/01/28 09:20:49;;;;;;;31.30;4.85;;;5.00;99.90;;;;;;5046359;28;20063;-75
2022/01/28 09:23:15;;;;;;;24.55;3.78;;;5.10;99.90;;;;;;5060615;28;20052;-75
2022/01/28 09:25:41;;;;;;;26.90;3.40;;;5.10;99.90;;;;;;5038673;28;20096;-73
2022/01/28 09:28:07;;;;;;;26.45;3.95;;;5.20;99.90;;;;;;5054867;28;20053;-74
2022/01/28 09:30:33;;;;;;;27.58;4.53;;;5.30;99.90;;;;;;5054706;28;20384;-74
2022/01/28 09:33:01;;;;;;;29.45;4.28;;;5.40;99.90;;;;;;5053946;28;20040;-74
2022/01/28 09:35:26;;;;;;;21.83;4.30;;;5.40;99.90;;;;;;5054134;28;20045;-74
2022/01/28 09:37:52;;;;;;;26.00;3.65;;;5.50;99.90;;;;;;5037784;28;20037;-75
2022/01/28 09:40:19;;;;;;;26.48;4.10;;;5.60;99.90;;;;;;5038344;28;20163;-76
2022/01/28 09:42:47;;;;;;;32.25;4.03;;;5.60;99.90;;;;;;5037936;28;20048;-77
2022/01/28 09:45:21;;;;;;;25.02;3.63;;;5.70;99.90;;;;;;5054149;28;20033;-76
2022/01/28 09:47:49;;;;;;;21.27;3.53;;;5.80;99.90;;;;;;5068358;28;20048;-76
2022/01/28 09:50:15;;;;;;;21.17;3.70;;;5.80;99.90;;;;;;5066679;28;20055;-76
2022/01/28 09:52:42;;;;;;;25.85;5.20;;;6.00;99.90;;;;;;5066801;28;20039;-74
2022/01/28 09:55:08;;;;;;;31.42;5.28;;;6.10;99.90;;;;;;5065156;28;20052;-75
2022/01/28 09:57:33;;;;;;;27.02;4.85;;;6.10;99.90;;;;;;5063049;28;20049;-75
2022/01/28 09:59:59;;;;;;;26.38;7.53;;;6.10;99.90;;;;;;5062809;28;20033;-75
2022/01/28 10:02:51;;;;;;;26.48;4.30;;;6.20;99.90;;;;;;5062186;28;20109;-73
2022/01/28 10:05:19;;;;;;;28.42;9.32;;;6.10;99.90;;;;;;5065021;28;20040;-73
2022/01/28 10:08:06;;;;;;;21.85;4.53;;;6.10;99.90;;;;;;5064305;28;20041;-73
2022/01/28 10:10:52;;;;;;;26.27;4.80;;;6.10;99.90;;;;;;5065031;28;20040;-73
2022/01/28 10:13:27;;;;;;;25.88;6.65;;;6.10;99.90;;;;;;5064688;28;20406;-75
2022/01/28 10:16:09;;;;;;;38.15;6.13;;;6.10;99.90;;;;;;5064754;28;20525;-75
2022/01/28 10:18:41;;;;;;;34.92;9.55;;;6.10;99.90;;;;;;5044929;28;20040;-73
2022/01/28 10:21:27;;;;;;;47.47;16.58;;;6.10;99.90;;;;;;5054060;28;20037;-73
2022/01/28 10:24:10;;;;;;;89.78;34.95;;;6.20;99.90;;;;;;5054048;28;20090;-73
2022/01/28 10:26:39;;;;;;;53.75;20.95;;;6.20;99.90;;;;;;5037259;28;20052;-73
2022/01/28 10:29:08;;;;;;;29.83;4.53;;;6.20;99.90;;;;;;5053117;28;20498;-73
2022/01/28 10:31:44;;;;;;;29.02;4.25;;;6.20;99.90;;;;;;5053617;28;20049;-73
2022/01/28 10:34:28;;;;;;;26.73;4.18;;;6.10;99.90;;;;;;5056366;28;20124;-74
2022/01/28 10:37:24;;;;;;;22.75;4.50;;;6.20;99.90;;;;;;5073563;28;20036;-73
2022/01/28 10:39:51;;;;;;;30.92;5.13;;;6.20;99.90;;;;;;5053802;28;20044;-72
2022/01/28 10:42:24;;;;;;;28.40;5.15;;;6.30;99.90;;;;;;5062198;28;20044;-73
2022/01/28 10:45:01;;;;;;;27.88;4.65;;;6.30;99.90;;;;;;5062828;28;20036;-73
2022/01/28 10:47:46;;;;;;;33.33;6.60;;;6.40;99.90;;;;;;5064163;28;20041;-73
2022/01/28 10:50:28;;;;;;;29.17;5.32;;;6.40;99.90;;;;;;5063196;28;20044;-73
2022/01/28 10:53:01;;;;;;;45.65;11.32;;;6.50;99.90;;;;;;5060958;28;20028;-73
2022/01/28 10:55:29;;;;;;;57.65;15.32;;;6.60;99.90;;;;;;5054414;28;20041;-75
2022/01/28 10:58:15;;;;;;;37.63;7.55;;;6.60;99.90;;;;;;5053090;28;20048;-73
2022/01/28 11:00:46;;;;;;;36.72;7.90;;;6.60;99.90;;;;;;5053845;28;20124;-73
2022/01/28 11:03:16;;;;;;;31.17;5.80;;;6.70;99.90;;;;;;5053005;28;20053;-73
2022/01/28 11:05:43;;;;;;;24.92;5.13;;;6.70;99.90;;;;;;5053108;28;20487;-73
2022/01/28 11:08:12;;;;;;;31.92;6.15;;;6.90;99.90;;;;;;5052665;28;20472;-72
2022/01/28 11:10:41;;;;;;;26.17;4.35;;;7.00;99.90;;;;;;5052527;28;20072;-77
2022/01/28 11:13:07;;;;;;;28.48;4.25;;;7.10;99.90;;;;;;5053237;28;20056;-73
2022/01/28 11:15:34;;;;;;;35.60;5.22;;;7.20;99.90;;;;;;5036548;28;20041;-73
2022/01/28 11:18:03;;;;;;;26.73;3.67;;;7.30;99.90;;;;;;5036293;28;20471;-73
2022/01/28 11:20:35;;;;;;;27.20;4.05;;;7.30;99.90;;;;;;5036334;28;20127;-73
2022/01/28 11:23:15;;;;;;;29.73;3.83;;;7.30;99.90;;;;;;5061065;28;20040;-75
2022/01/28 11:26:11;;;;;;;26.85;4.25;;;7.20;99.90;;;;;;5072368;28;20044;-73
2022/01/28 11:28:40;;;;;;;23.48;3.63;;;7.20;99.90;;;;;;5052714;28;20051;-73
2022/01/28 11:31:06;;;;;;;28.25;3.58;;;7.20;99.90;;;;;;5072621;28;20554;-76
2022/01/28 11:33:51;;;;;;;26.98;3.78;;;7.30;99.90;;;;;;5054973;28;20119;-76
2022/01/28 11:36:34;;;;;;;31.88;4.10;;;7.20;99.90;;;;;;5072883;28;20040;-73
2022/01/28 11:39:41;;;;;;;18.05;4.00;;;7.30;99.90;;;;;;5072551;28;20036;-76
2022/01/28 11:42:13;;;;;;;24.60;3.97;;;7.30;99.90;;;;;;5051454;28;20045;-74
2022/01/28 11:44:44;;;;;;;29.58;5.47;;;7.30;99.90;;;;;;5051224;28;20099;-75
2022/01/28 11:47:19;;;;;;;24.08;4.20;;;7.40;99.90;;;;;;5052519;28;20387;-75
2022/01/28 11:50:08;;;;;;;32.67;4.65;;;7.40;99.90;;;;;;5050359;28;20387;-73
2022/01/28 11:52:38;;;;;;;26.55;3.72;;;7.50;99.90;;;;;;5034752;28;20483;-75
2022/01/28 11:55:20;;;;;;;28.20;3.40;;;7.50;99.90;;;;;;5051571;28;20060;-76
2022/01/28 11:57:57;;;;;;;22.00;3.35;;;7.50;99.90;;;;;;5034725;28;20132;-76
2022/01/28 12:00:32;;;;;;;23.50;3.75;;;7.40;99.90;;;;;;5051325;28;20090;-75
2022/01/28 12:02:58;;;;;;;20.35;2.97;;;7.40;99.90;;;;;;5051194;28;20520;-74
2022/01/28 12:05:29;;;;;;;21.88;3.38;;;7.40;99.90;;;;;;5051673;28;20049;-75
2022/01/28 12:07:56;;;;;;;20.10;3.08;;;7.40;99.90;;;;;;5034636;28;20041;-74
2022/01/28 12:10:26;;;;;;;20.30;3.17;;;7.50;99.90;;;;;;5034888;28;20051;-76
2022/01/28 12:13:00;;;;;;;22.08;3.15;;;7.70;99.90;;;;;;5057459;28;20078;-76
2022/01/28 12:15:57;;;;;;;24.27;3.42;;;7.90;99.90;;;;;;5070831;28;20048;-74
2022/01/28 12:18:23;;;;;;;21.65;3.92;;;8.20;99.90;;;;;;5071205;28;20067;-74
2022/01/28 12:20:49;;;;;;;22.27;3.67;;;8.30;99.90;;;;;;5071308;28;20386;-74
2022/01/28 12:23:18;;;;;;;24.02;4.00;;;8.40;99.90;;;;;;5070746;28;20553;-74
2022/01/28 12:25:44;;;;;;;18.58;3.22;;;8.30;99.90;;;;;;5054739;28;20091;-74
2022/01/28 12:28:20;;;;;;;22.45;3.88;;;8.40;99.90;;;;;;5054514;28;20125;-73
2022/01/28 12:30:47;;;;;;;23.88;3.53;;;8.50;99.90;;;;;;5071316;28;20052;-76
2022/01/28 12:33:14;;;;;;;23.85;4.90;;;8.50;99.90;;;;;;5070893;28;20540;-74
2022/01/28 12:35:43;;;;;;;24.17;3.55;;;8.50;99.90;;;;;;5056036;28;20055;-74
2022/01/28 12:38:11;;;;;;;27.20;3.90;;;8.60;99.90;;;;;;5075250;28;20482;-75
2022/01/28 12:40:41;;;;;;;23.55;3.50;;;8.70;99.90;;;;;;5075164;28;20366;-74
2022/01/28 12:43:08;;;;;;;25.35;6.50;;;8.90;99.90;;;;;;5065824;28;20130;-74
2022/01/28 12:45:34;;;;;;;41.47;10.75;;;9.20;99.90;;;;;;5064796;28;20102;-74
2022/01/28 12:48:00;;;;;;;32.42;9.27;;;9.20;99.90;;;;;;5074195;28;20080;-74
2022/01/28 12:50:28;;;;;;;78.05;25.75;;;9.30;99.90;;;;;;5074941;28;20148;-75
2022/01/28 12:52:54;;;;;;;43.33;12.65;;;9.20;99.90;;;;;;5072607;28;20051;-75
2022/01/28 12:55:20;;;;;;;117.30;38.10;;;9.10;99.90;;;;;;5054741;28;20052;-73
2022/01/28 12:57:47;;;;;;;34.28;7.80;;;9.10;99.90;;;;;;5054521;28;20491;-75
2022/01/28 13:00:14;;;;;;;116.55;34.65;;;9.20;99.90;;;;;;5054107;28;20119;-74
2022/01/28 13:02:41;;;;;;;31.65;7.75;;;9.40;99.90;;;;;;5054575;28;20128;-74
2022/01/28 13:05:13;;;;;;;33.63;5.78;;;9.40;99.90;;;;;;5038117;28;20037;-74
2022/01/28 13:10:28;;;;;;;42.13;10.95;;;9.50;99.90;;;;;;5054504;28;20115;-74
2022/01/28 13:13:09;;;;;;;51.45;15.45;;;9.40;99.90;;;;;;5043452;28;20044;-74
2022/01/28 13:15:35;;;;;;;50.28;14.02;;;9.60;99.90;;;;;;5074120;28;20036;-73
2022/01/28 13:18:02;;;;;;;21.42;4.00;;;9.60;99.90;;;;;;5057806;28;20078;-76
2022/01/28 13:20:38;;;;;;;31.65;9.63;;;9.60;99.90;;;;;;5067730;28;20043;-76
2022/01/28 13:23:04;;;;;;;23.95;6.07;;;9.70;99.90;;;;;;5055146;28;20051;-74
2022/01/28 13:25:30;;;;;;;23.00;2.70;;;9.60;99.90;;;;;;5055151;28;20029;-74
2022/01/28 13:28:02;;;;;;;20.50;2.85;;;9.40;99.90;;;;;;5038685;28;20037;-74
2022/01/28 13:30:38;;;;;;;15.27;2.78;;;9.20;99.90;;;;;;5038774;28;20124;-74
2022/01/28 13:33:06;;;;;;;17.80;3.33;;;8.90;99.90;;;;;;5055125;28;20041;-74
2022/01/28 13:35:37;;;;;;;18.27;3.00;;;8.70;99.90;;;;;;5054998;28;20041;-74
2022/01/28 13:38:13;;;;;;;17.45;3.08;;;8.70;99.90;;;;;;5038624;28;20036;-76
2022/01/28 13:40:39;;;;;;;23.98;3.15;;;8.40;99.90;;;;;;5054965;28;20033;-74
2022/01/28 13:43:13;;;;;;;22.20;4.03;;;8.30;99.90;;;;;;5038407;28;20430;-73
2022/01/28 13:45:46;;;;;;;23.23;3.65;;;8.20;99.90;;;;;;5037965;28;20045;-74
2022/01/28 13:48:20;;;;;;;25.98;4.68;;;8.10;99.90;;;;;;5038047;28;20095;-75
2022/01/28 13:50:53;;;;;;;29.55;4.20;;;8.10;99.90;;;;;;5054911;28;20049;-75
2022/01/28 13:56:12;;;;;;;24.90;4.35;;;7.90;99.90;;;;;;5054722;28;20133;-75
2022/01/28 13:58:51;;;;;;;23.65;4.00;;;7.70;99.90;;;;;;5054138;28;20052;-75
2022/01/28 14:01:17;;;;;;;21.33;4.20;;;7.60;99.90;;;;;;5054766;28;20127;-76
2022/01/28 14:03:56;;;;;;;29.88;5.20;;;7.50;99.90;;;;;;5037621;28;20055;-74
2022/01/28 14:06:25;;;;;;;25.88;4.75;;;7.70;99.90;;;;;;5038177;28;20041;-76
2022/01/28 14:08:54;;;;;;;22.88;4.63;;;7.80;99.90;;;;;;5054402;28;20051;-75
2022/01/28 14:11:24;;;;;;;25.85;4.95;;;7.80;99.90;;;;;;5054262;28;20045;-74
2022/01/28 14:14:15;;;;;;;22.00;3.72;;;7.70;99.90;;;;;;5054437;28;20091;-74
2022/01/28 14:16:45;;;;;;;25.50;4.70;;;7.70;99.90;;;;;;5054291;28;20071;-74